createdAt,value
2022-09-05T00:01:56.027Z,12.55
2022-09-05T00:04:44.469Z,16.27
2022-09-05T00:07:57.988Z,15.52
2022-09-05T00:10:25.232Z,15.05
2022-09-05T00:13:07.390Z,16.73
2022-09-05T00:15:43.220Z,17.35
2022-09-05T00:24:30.240Z,13.23
2022-09-05T00:24:50.122Z,15.65
2022-09-05T00:27:24.857Z,16.45
2022-09-05T00:31:08.675Z,14.18
2022-09-05T00:33:17.045Z,14.68
2022-09-05T00:36:17.176Z,14.23
2022-09-05T00:38:56.147Z,15.50
2022-09-05T00:41:23.095Z,15.43
2022-09-05T00:43:51.597Z,15.38
2022-09-05T00:46:25.383Z,17.17
2022-09-05T00:49:16.561Z,13.85
2022-09-05T00:52:15.323Z,14.77
2022-09-05T00:55:21.346Z,17.67
2022-09-05T00:58:05.993Z,18.00
2022-09-05T01:00:56.619Z,15.38
2022-09-05T01:03:35.046Z,17.08
2022-09-05T01:06:26.098Z,14.40
2022-09-05T01:09:08.004Z,16.40
2022-09-05T01:11:42.999Z,16.67
2022-09-05T01:14:37.439Z,18.57
2022-09-05T01:17:22.835Z,16.02
2022-09-05T01:20:31.437Z,17.05
2022-09-05T01:23:23.345Z,13.13
2022-09-05T01:26:11.900Z,15.15
2022-09-05T01:29:16.023Z,17.42
2022-09-05T01:32:06.161Z,14.63
2022-09-05T01:34:55.039Z,14.13
2022-09-05T01:37:47.797Z,13.77
2022-09-05T01:40:23.786Z,15.15
2022-09-05T01:43:20.902Z,16.25
2022-09-05T01:45:50.626Z,13.95
2022-09-05T01:48:57.936Z,15.75
2022-09-05T01:51:40.011Z,17.77
2022-09-05T01:54:39.661Z,15.90
2022-09-05T01:57:18.267Z,13.68
2022-09-05T01:59:55.461Z,16.70
2022-09-05T02:02:37.363Z,20.35
2022-09-05T02:05:06.995Z,14.75
2022-09-05T02:07:52.232Z,17.40
2022-09-05T02:10:31.130Z,15.35
2022-09-05T02:13:22.415Z,17.38
2022-09-05T02:16:19.897Z,17.98
2022-09-05T02:19:04.857Z,16.08
2022-09-05T02:21:55.347Z,15.63
2022-09-05T02:24:31.110Z,16.08
2022-09-05T02:27:40.261Z,19.80
2022-09-05T02:30:16.896Z,16.63
2022-09-05T02:33:02.599Z,15.98
2022-09-05T02:35:55.001Z,17.90
2022-09-05T02:42:00.180Z,15.60
2022-09-05T02:45:09.514Z,17.33
2022-09-05T02:45:13.411Z,15.88
2022-09-05T02:48:15.585Z,19.42
2022-09-05T02:55:12.852Z,14.77
2022-09-05T02:57:37.624Z,15.30
2022-09-05T02:57:45.795Z,18.48
2022-09-05T02:59:36.142Z,16.52
2022-09-05T03:02:25.450Z,17.83
2022-09-05T03:05:35.716Z,16.48
2022-09-05T03:08:17.067Z,16.70
2022-09-05T03:10:54.214Z,17.95
2022-09-05T03:13:27.410Z,16.42
2022-09-05T03:16:39.186Z,22.58
2022-09-05T03:19:52.739Z,19.58
2022-09-05T03:22:50.026Z,16.48
2022-09-05T03:25:42.846Z,16.88
2022-09-05T03:28:26.493Z,15.27
2022-09-05T03:31:26.670Z,15.68
2022-09-05T03:34:12.352Z,16.90
2022-09-05T03:37:16.500Z,16.80
2022-09-05T03:40:15.273Z,16.70
2022-09-05T03:42:53.495Z,15.65
2022-09-05T03:45:44.208Z,17.20
2022-09-05T03:48:29.313Z,18.65
2022-09-05T03:55:42.733Z,14.48
2022-09-05T03:57:16.515Z,16.10
2022-09-05T03:57:46.333Z,16.65
2022-09-05T04:00:22.919Z,16.77
2022-09-05T04:08:09.141Z,15.20
2022-09-05T04:08:20.632Z,21.02
2022-09-05T04:08:48.057Z,16.35
2022-09-05T04:11:27.969Z,15.95
2022-09-05T04:14:02.698Z,16.05
2022-09-05T04:16:47.987Z,17.63
2022-09-05T04:19:17.451Z,14.50
2022-09-05T04:21:56.159Z,15.50
2022-09-05T04:24:30.103Z,18.48
2022-09-05T04:27:02.427Z,14.68
2022-09-05T04:29:58.495Z,15.20
2022-09-05T04:32:36.786Z,17.05
2022-09-05T04:35:03.261Z,19.48
2022-09-05T04:37:48.879Z,18.40
2022-09-05T04:40:35.673Z,16.13
2022-09-05T04:43:19.463Z,18.83
2022-09-05T04:46:20.701Z,16.50
2022-09-05T04:49:15.664Z,16.30
2022-09-05T04:52:16.785Z,16.80
2022-09-05T04:55:07.207Z,15.63
2022-09-05T04:57:36.615Z,16.17
2022-09-05T05:02:47.951Z,17.67
2022-09-05T05:06:02.511Z,18.27
2022-09-05T05:06:11.539Z,17.77
2022-09-05T05:08:46.717Z,17.90
2022-09-05T05:17:54.028Z,16.98
2022-09-05T05:18:01.746Z,18.50
2022-09-05T05:18:09.412Z,17.90
2022-09-05T05:23:07.364Z,20.65
2022-09-05T05:25:46.364Z,16.55
2022-09-05T05:28:24.664Z,16.85
2022-09-05T05:30:54.021Z,15.55
2022-09-05T05:33:34.298Z,17.20
2022-09-05T05:36:03.574Z,19.33
2022-09-05T05:38:51.648Z,18.33
2022-09-05T05:41:46.482Z,21.50
2022-09-05T05:44:19.433Z,18.30
2022-09-05T05:47:16.631Z,17.75
2022-09-05T05:50:01.267Z,15.73
2022-09-05T05:52:40.833Z,24.70
2022-09-05T05:55:50.682Z,17.33
2022-09-05T05:58:24.660Z,22.23
2022-09-05T06:01:37.210Z,17.92
2022-09-05T06:04:28.039Z,15.90
2022-09-05T06:07:22.189Z,19.02
2022-09-05T06:14:53.197Z,20.30
2022-09-05T06:14:56.531Z,19.77
2022-09-05T06:16:12.699Z,20.55
2022-09-05T06:19:49.761Z,19.67
2022-09-05T06:22:49.583Z,17.88
2022-09-05T06:25:40.936Z,21.45
2022-09-05T06:28:25.935Z,19.08
2022-09-05T06:31:30.342Z,20.77
2022-09-05T06:34:04.378Z,20.70
2022-09-05T06:37:01.844Z,18.40
2022-09-05T06:40:06.138Z,17.25
2022-09-05T06:42:42.445Z,19.90
2022-09-05T06:45:27.163Z,19.20
2022-09-05T06:48:04.934Z,16.98
2022-09-05T06:51:08.165Z,19.92
2022-09-05T06:53:53.476Z,20.30
2022-09-05T06:56:31.952Z,21.17
2022-09-05T06:59:26.107Z,18.15
2022-09-05T07:02:08.484Z,20.40
2022-09-05T07:05:37.154Z,20.40
2022-09-05T07:08:15.785Z,20.83
2022-09-05T07:11:04.391Z,18.85
2022-09-05T07:13:48.320Z,16.55
2022-09-05T07:16:51.196Z,18.10
2022-09-05T07:19:44.502Z,19.73
2022-09-05T07:22:46.021Z,15.07
2022-09-05T07:25:08.858Z,15.02
2022-09-05T07:27:44.437Z,13.60
2022-09-05T07:30:25.158Z,21.23
2022-09-05T07:32:54.927Z,12.60
2022-09-05T07:35:29.270Z,15.13
2022-09-05T07:38:15.038Z,17.98
2022-09-05T07:40:50.506Z,12.75
2022-09-05T07:43:23.370Z,18.00
2022-09-05T07:46:05.012Z,11.60
2022-09-05T07:48:43.367Z,13.27
2022-09-05T07:56:47.985Z,12.25
2022-09-05T07:57:00.084Z,12.18
2022-09-05T07:57:31.263Z,12.25
2022-09-05T08:00:26.695Z,11.88
2022-09-05T08:02:59.246Z,16.48
2022-09-05T08:05:35.786Z,18.45
2022-09-05T08:08:14.462Z,13.75
2022-09-05T08:11:24.066Z,17.55
2022-09-05T08:13:46.413Z,16.73
2022-09-05T08:16:20.600Z,19.45
2022-09-05T08:18:54.151Z,11.77
2022-09-05T08:21:33.255Z,16.13
2022-09-05T08:24:05.528Z,18.42
2022-09-05T08:26:50.184Z,13.95
2022-09-05T08:29:40.573Z,12.20
2022-09-05T08:32:23.040Z,15.75
2022-09-05T08:34:52.487Z,11.23
2022-09-05T08:37:25.753Z,18.80
2022-09-05T08:40:10.893Z,12.80
2022-09-05T08:46:36.862Z,14.38
2022-09-05T08:46:42.699Z,18.45
2022-09-05T08:49:32.417Z,14.88
2022-09-05T08:52:26.448Z,11.35
2022-09-05T08:55:07.591Z,15.85
2022-09-05T08:57:46.529Z,16.27
2022-09-05T09:00:24.864Z,15.15
2022-09-05T09:03:18.434Z,10.52
2022-09-05T09:06:12.723Z,19.30
2022-09-05T09:09:05.796Z,12.88
2022-09-05T09:11:42.275Z,8.57
2022-09-05T09:14:14.902Z,14.98
2022-09-05T09:17:19.083Z,17.85
2022-09-05T09:20:00.527Z,10.68
2022-09-05T09:22:41.800Z,9.73
2022-09-05T09:25:18.467Z,7.57
2022-09-05T09:28:48.431Z,10.93
2022-09-05T09:30:58.275Z,12.82
2022-09-05T09:33:53.870Z,9.98
2022-09-05T09:36:37.972Z,8.18
2022-09-05T09:39:19.056Z,5.68
2022-09-05T09:42:05.000Z,10.60
2022-09-05T09:45:28.839Z,7.97
2022-09-05T09:48:10.115Z,6.28
2022-09-05T09:51:01.772Z,3.60
2022-09-05T09:53:46.873Z,7.82
2022-09-05T09:56:31.179Z,10.88
2022-09-05T09:59:15.911Z,6.78
2022-09-05T10:04:31.095Z,7.45
2022-09-05T10:10:35.651Z,6.43
2022-09-05T10:10:54.671Z,6.07
2022-09-05T10:14:52.595Z,4.15
2022-09-05T10:17:56.752Z,6.35
2022-09-05T10:20:38.079Z,10.00
2022-09-05T10:23:13.548Z,9.15
2022-09-05T10:26:31.590Z,9.98
2022-09-05T10:29:36.891Z,12.52
2022-09-05T10:34:42.481Z,8.63
2022-09-05T10:35:15.329Z,3.83
2022-09-05T10:37:51.133Z,4.25
2022-09-05T10:40:22.903Z,4.38
2022-09-05T10:42:59.803Z,5.20
2022-09-05T10:45:38.244Z,4.40
2022-09-05T10:48:33.913Z,3.03
2022-09-05T10:51:29.739Z,6.13
2022-09-05T10:54:18.219Z,6.20
2022-09-05T10:56:52.515Z,7.15
2022-09-05T11:02:15.589Z,5.97
2022-09-05T11:02:33.671Z,8.65
2022-09-05T11:05:30.772Z,2.72
2022-09-05T11:08:06.870Z,5.22
2022-09-05T11:10:45.584Z,6.47
2022-09-05T11:13:30.876Z,4.05
2022-09-05T11:16:08.267Z,5.93
2022-09-05T11:18:55.263Z,4.53
2022-09-05T11:21:26.011Z,4.07
2022-09-05T11:24:00.716Z,5.03
2022-09-05T11:26:42.253Z,4.75
2022-09-05T11:29:12.684Z,6.63
2022-09-05T11:33:58.843Z,7.63
2022-09-05T11:40:04.427Z,5.07
2022-09-05T11:40:10.678Z,4.50
2022-09-05T11:41:10.039Z,4.35
2022-09-05T11:43:47.221Z,5.03
2022-09-05T11:46:13.657Z,5.93
2022-09-05T11:49:01.787Z,8.32
2022-09-05T11:51:59.295Z,3.25
2022-09-05T11:54:56.468Z,5.50
2022-09-05T11:58:29.643Z,9.52
2022-09-05T12:01:42.067Z,6.85
2022-09-05T12:04:14.206Z,4.32
2022-09-05T12:07:32.151Z,4.32
2022-09-05T12:10:46.074Z,3.70
2022-09-05T12:13:17.078Z,6.15
2022-09-05T12:16:00.599Z,3.70
2022-09-05T12:18:42.936Z,5.53
2022-09-05T12:21:28.219Z,8.68
2022-09-05T12:25:26.560Z,4.35
2022-09-05T12:27:38.396Z,5.18
2022-09-05T12:30:04.477Z,3.55
2022-09-05T12:33:52.359Z,5.07
2022-09-05T12:40:44.799Z,3.90
2022-09-05T12:40:59.510Z,6.55
2022-09-05T12:42:13.904Z,6.15
2022-09-05T12:44:48.195Z,7.45
2022-09-05T12:47:21.117Z,4.78
2022-09-05T12:50:02.381Z,3.90
2022-09-05T12:52:33.756Z,3.58
2022-09-05T12:55:10.945Z,3.17
2022-09-05T13:01:20.377Z,3.80
2022-09-05T13:03:12.329Z,6.00
2022-09-05T13:03:31.667Z,2.95
2022-09-05T13:06:11.616Z,6.53
2022-09-05T13:08:59.391Z,3.80
2022-09-05T13:14:50.555Z,2.97
2022-09-05T13:14:55.027Z,4.30
2022-09-05T13:17:13.831Z,6.20
2022-09-05T13:19:47.389Z,2.47
2022-09-05T13:22:16.429Z,7.60
2022-09-05T13:24:49.741Z,5.65
2022-09-05T13:27:24.011Z,6.10
2022-09-05T13:31:53.470Z,2.88
2022-09-05T13:37:59.037Z,5.13
2022-09-05T13:38:19.333Z,4.43
2022-09-05T13:39:07.774Z,5.75
2022-09-05T13:41:49.551Z,4.20
2022-09-05T13:44:26.783Z,6.15
2022-09-05T13:47:29.483Z,5.00
2022-09-05T13:49:56.900Z,2.90
2022-09-05T13:52:40.513Z,5.05
2022-09-05T13:55:15.848Z,4.80
2022-09-05T13:57:55.491Z,3.00
2022-09-05T14:00:40.197Z,3.30
2022-09-05T14:06:07.256Z,4.22
2022-09-05T14:09:35.126Z,3.13
2022-09-05T14:12:01.526Z,4.85
2022-09-05T14:17:58.754Z,4.22
2022-09-05T14:20:50.158Z,3.53
2022-09-05T14:23:19.008Z,4.18
2022-09-05T14:25:54.253Z,3.60
2022-09-05T14:28:33.892Z,4.47
2022-09-05T14:36:23.552Z,4.68
2022-09-05T14:37:42.764Z,2.97
2022-09-05T14:37:49.196Z,3.08
2022-09-05T14:40:29.903Z,3.95
2022-09-05T14:43:13.978Z,3.17
2022-09-05T14:46:14.198Z,4.55
2022-09-05T14:48:59.674Z,5.18
2022-09-05T14:51:34.983Z,3.05
2022-09-05T15:02:33.986Z,5.03
2022-09-05T15:02:48.794Z,5.28
2022-09-05T15:03:03.656Z,4.47
2022-09-05T15:05:31.655Z,3.10
2022-09-05T15:08:14.889Z,5.05
2022-09-05T15:12:17.200Z,3.45
2022-09-05T15:14:07.672Z,5.13
2022-09-05T15:16:40.180Z,3.88
2022-09-05T15:19:10.093Z,6.70
2022-09-05T15:21:41.038Z,5.90
2022-09-05T15:24:14.311Z,5.30
2022-09-05T15:26:54.563Z,2.72
2022-09-05T15:29:26.895Z,4.93
2022-09-05T15:32:11.825Z,4.75
2022-09-05T15:34:39.198Z,3.35
2022-09-05T15:37:40.768Z,6.68
2022-09-05T15:40:22.415Z,6.28
2022-09-05T15:42:56.942Z,9.35
2022-09-05T15:45:29.000Z,6.15
2022-09-05T15:48:17.387Z,5.65
2022-09-05T15:50:51.252Z,4.32
2022-09-05T15:53:26.017Z,4.78
2022-09-05T15:55:59.839Z,5.47
2022-09-05T15:58:27.247Z,9.50
2022-09-05T16:01:15.657Z,3.90
2022-09-05T16:08:49.384Z,3.35
2022-09-05T16:10:33.926Z,8.05
2022-09-05T16:10:50.570Z,5.90
2022-09-05T16:12:43.885Z,7.10
2022-09-05T16:19:23.448Z,10.02
2022-09-05T16:23:20.947Z,5.22
2022-09-05T16:23:27.780Z,3.83
2022-09-05T16:24:13.792Z,3.22
2022-09-05T16:26:45.762Z,7.95
2022-09-05T16:29:26.536Z,6.13
2022-09-05T16:31:59.436Z,6.05
2022-09-05T16:34:28.827Z,2.72
2022-09-05T16:37:07.870Z,8.50
2022-09-05T16:39:39.726Z,4.43
2022-09-05T16:42:46.692Z,6.38
2022-09-05T16:45:14.268Z,5.97
2022-09-05T16:48:14.102Z,6.63
2022-09-05T16:50:53.452Z,6.40
2022-09-05T16:53:32.288Z,8.45
2022-09-05T16:56:09.921Z,7.97
2022-09-05T16:58:56.293Z,4.45
2022-09-05T17:01:34.820Z,7.13
2022-09-05T17:05:04.792Z,5.53
2022-09-05T17:07:57.990Z,6.97
2022-09-05T17:10:28.359Z,5.22
2022-09-05T17:12:56.006Z,6.63
2022-09-05T17:15:31.769Z,9.48
2022-09-05T17:18:21.581Z,6.63
2022-09-05T17:20:49.461Z,6.22
2022-09-05T17:28:07.253Z,5.38
2022-09-05T17:29:25.251Z,6.72
2022-09-05T17:29:44.142Z,5.78
2022-09-05T17:31:56.412Z,6.15
2022-09-05T17:34:34.659Z,6.22
2022-09-05T17:37:19.534Z,7.80
2022-09-05T17:40:23.558Z,7.93
2022-09-05T17:43:05.037Z,7.32
2022-09-05T17:46:10.385Z,9.68
2022-09-05T17:49:18.498Z,6.28
2022-09-05T17:51:35.699Z,6.32
2022-09-05T17:54:07.810Z,9.20
2022-09-05T17:56:40.447Z,5.60
2022-09-05T17:59:13.413Z,5.35
2022-09-05T18:01:44.154Z,7.70
2022-09-05T18:04:17.750Z,5.53
2022-09-05T18:06:59.474Z,4.95
2022-09-05T18:15:27.507Z,7.97
2022-09-05T18:17:54.047Z,8.05
2022-09-05T18:20:23.451Z,10.98
2022-09-05T18:26:11.279Z,9.68
2022-09-05T18:28:50.196Z,9.23
2022-09-05T18:31:40.691Z,7.15
2022-09-05T18:34:14.761Z,9.55
2022-09-05T18:36:48.849Z,7.68
2022-09-05T18:39:27.630Z,6.47
2022-09-05T18:42:09.170Z,11.60
2022-09-05T18:44:56.266Z,11.45
2022-09-05T18:47:50.937Z,8.93
2022-09-05T18:50:27.816Z,11.38
2022-09-05T18:53:09.072Z,8.82
2022-09-05T18:56:10.320Z,9.48
2022-09-05T18:58:31.480Z,11.40
2022-09-05T19:01:28.573Z,8.88
2022-09-05T19:03:59.799Z,9.55
2022-09-05T19:06:36.692Z,7.70
2022-09-05T19:09:15.014Z,13.00
2022-09-05T19:11:53.378Z,10.63
2022-09-05T19:14:34.098Z,13.00
2022-09-05T19:17:09.252Z,13.77
2022-09-05T19:23:11.002Z,12.48
2022-09-05T19:25:41.558Z,5.95
2022-09-05T19:36:51.630Z,8.07
2022-09-05T19:36:53.598Z,13.63
2022-09-05T19:37:08.705Z,8.60
2022-09-05T19:37:39.646Z,9.15
2022-09-05T19:46:21.133Z,11.73
2022-09-05T19:47:30.548Z,12.50
2022-09-05T19:47:39.302Z,9.18
2022-09-05T19:48:26.715Z,30.70
2022-09-05T19:51:17.221Z,11.27
2022-09-05T19:54:01.279Z,9.93
2022-09-05T19:56:45.933Z,9.13
2022-09-05T19:59:27.402Z,12.43
2022-09-05T20:02:02.840Z,7.63
2022-09-05T20:04:35.734Z,9.07
2022-09-05T20:07:16.423Z,11.60
2022-09-05T20:09:46.943Z,7.63
2022-09-05T20:12:24.221Z,9.40
2022-09-05T20:14:51.332Z,7.93
2022-09-05T20:17:31.064Z,11.35
2022-09-05T20:20:12.888Z,15.95
2022-09-05T20:22:50.440Z,8.27
2022-09-05T20:25:35.990Z,6.68
2022-09-05T20:28:10.362Z,10.48
2022-09-05T20:30:44.126Z,10.57
2022-09-05T20:33:42.869Z,8.77
2022-09-05T20:43:09.906Z,9.63
2022-09-05T20:43:17.265Z,10.00
2022-09-05T20:43:32.443Z,8.48
2022-09-05T20:44:51.195Z,13.38
2022-09-05T20:54:05.885Z,15.35
2022-09-05T20:54:13.741Z,16.77
2022-09-05T20:54:26.661Z,10.18
2022-09-05T20:56:10.751Z,9.85
2022-09-05T20:58:38.971Z,8.77
2022-09-05T21:01:21.718Z,14.75
2022-09-05T21:04:02.381Z,10.35
2022-09-05T21:06:34.863Z,9.65
2022-09-05T21:09:29.416Z,14.10
2022-09-05T21:12:00.126Z,9.95
2022-09-05T21:14:28.572Z,9.98
2022-09-05T21:17:15.073Z,9.18
2022-09-05T21:19:46.604Z,11.88
2022-09-05T21:22:20.292Z,9.05
2022-09-05T21:24:47.305Z,11.35
2022-09-05T21:27:24.103Z,12.68
2022-09-05T21:29:59.012Z,10.38
2022-09-05T21:32:41.365Z,7.78
2022-09-05T21:35:35.043Z,11.70
2022-09-05T21:37:56.955Z,9.55
2022-09-05T21:40:23.602Z,12.30
2022-09-05T21:46:36.677Z,11.70
2022-09-05T21:47:38.479Z,13.43
2022-09-05T21:48:24.318Z,11.85
2022-09-05T21:50:51.067Z,13.07
2022-09-05T21:59:13.312Z,10.13
2022-09-05T21:59:29.710Z,12.02
2022-09-05T21:59:36.926Z,8.65
2022-09-05T22:02:08.291Z,10.77
2022-09-05T22:04:40.926Z,14.23
2022-09-05T22:07:08.063Z,9.75
2022-09-05T22:09:34.555Z,10.15
2022-09-05T22:12:03.892Z,7.60
2022-09-05T22:14:47.774Z,13.93
2022-09-05T22:17:14.377Z,11.52
2022-09-05T22:19:41.212Z,11.82
2022-09-05T22:22:16.969Z,11.27
2022-09-05T22:24:59.201Z,14.10
2022-09-05T22:27:28.722Z,11.60
2022-09-05T22:29:57.258Z,9.77
2022-09-05T22:32:35.273Z,9.75
2022-09-05T22:35:27.198Z,10.13
2022-09-05T22:38:00.251Z,9.65
2022-09-05T22:40:28.884Z,10.40
2022-09-05T22:42:57.192Z,11.65
2022-09-05T22:45:24.665Z,13.20
2022-09-05T22:47:51.108Z,10.20
2022-09-05T22:50:17.864Z,9.23
2022-09-05T22:52:44.396Z,14.98
2022-09-05T22:55:11.390Z,10.75
2022-09-05T22:57:38.956Z,9.77
2022-09-05T23:00:06.843Z,9.30
2022-09-05T23:02:35.086Z,9.48
2022-09-05T23:05:02.956Z,13.85
2022-09-05T23:07:29.611Z,11.68
2022-09-05T23:09:56.107Z,13.82
2022-09-05T23:12:22.564Z,13.75
2022-09-05T23:14:49.038Z,12.10
2022-09-05T23:17:15.588Z,10.30
2022-09-05T23:19:42.161Z,13.82
2022-09-05T23:22:08.691Z,11.40
2022-09-05T23:24:35.221Z,12.15
2022-09-05T23:27:01.723Z,13.45
2022-09-05T23:29:28.251Z,11.00
2022-09-05T23:31:54.773Z,10.80
2022-09-05T23:34:21.523Z,17.52
2022-09-05T23:36:48.024Z,12.15
2022-09-05T23:39:14.491Z,10.00
2022-09-05T23:41:41.002Z,9.25
2022-09-05T23:44:07.443Z,6.50
2022-09-05T23:46:34.030Z,11.82
2022-09-05T23:49:00.510Z,14.77
2022-09-05T23:51:27.067Z,9.27
2022-09-05T23:53:53.558Z,12.98
2022-09-05T23:56:20.295Z,10.95
2022-09-05T23:58:46.969Z,9.60
